Time;durP1;ratioP1;P1;durP2;ratioP2;P2;SDS_P1;SDS_P2;PMS_P1;PMS_P2;Temp;Humidity;BMP_temperature;BMP_pressure;BME280_temperature;BME280_humidity;BME280_pressure;Samples;Min_cycle;Max_cycle;Signal;HPM_P1;HPM_P2
2020/12/04 00:00:58;;;;;;;2.53;1.58;;;5.00;99.90;;;;;;5046567;28;20561;-66
2020/12/04 00:03:24;;;;;;;2.88;1.95;;;5.00;99.90;;;;;;5047765;28;20536;-68
2020/12/04 00:05:49;;;;;;;3.10;1.70;;;5.00;99.90;;;;;;5046861;28;20041;-67
2020/12/04 00:08:15;;;;;;;3.20;1.70;;;5.00;99.90;;;;;;5047812;28;20095;-67
2020/12/04 00:10:41;;;;;;;3.45;1.65;;;5.00;99.90;;;;;;5047418;28;20037;-66
2020/12/04 00:13:06;;;;;;;3.45;1.98;;;5.00;99.90;;;;;;5047786;28;20048;-67
2020/12/04 00:15:32;;;;;;;5.35;2.00;;;5.00;99.90;;;;;;5047285;28;20033;-68
2020/12/04 00:17:57;;;;;;;2.88;2.28;;;5.00;99.90;;;;;;5044514;28;20039;-66
2020/12/04 00:20:23;;;;;;;7.13;1.90;;;5.00;99.90;;;;;;5046273;28;20033;-67
2020/12/04 00:22:49;;;;;;;3.17;1.90;;;5.00;99.90;;;;;;5046009;28;20524;-67
2020/12/04 00:25:14;;;;;;;3.90;1.83;;;5.00;99.90;;;;;;5047576;28;20091;-67
2020/12/04 00:27:40;;;;;;;3.53;2.08;;;5.00;99.90;;;;;;5048198;28;20033;-67
2020/12/04 00:30:05;;;;;;;5.18;2.22;;;5.00;99.90;;;;;;5050352;28;20056;-68
2020/12/04 00:32:31;;;;;;;4.15;1.80;;;5.00;99.90;;;;;;5048162;28;20025;-68
2020/12/04 00:34:56;;;;;;;3.63;2.33;;;5.00;99.90;;;;;;5047072;28;20503;-68
2020/12/04 00:37:22;;;;;;;5.90;2.58;;;5.00;99.90;;;;;;5047430;28;20044;-66
2020/12/04 00:39:47;;;;;;;4.90;2.88;;;5.00;99.90;;;;;;5046711;28;20583;-67
2020/12/04 00:42:13;;;;;;;4.22;2.47;;;5.00;99.90;;;;;;5047620;28;20429;-67
2020/12/04 00:44:38;;;;;;;3.10;2.05;;;4.90;99.90;;;;;;5046663;28;20033;-67
2020/12/04 00:47:04;;;;;;;3.00;2.05;;;5.00;99.90;;;;;;5045789;28;20026;-67
2020/12/04 00:49:29;;;;;;;6.18;2.88;;;5.00;99.90;;;;;;5046830;28;20063;-67
2020/12/04 00:51:55;;;;;;;6.40;2.85;;;5.00;99.90;;;;;;5046944;28;20092;-67
2020/12/04 00:54:21;;;;;;;5.50;2.65;;;5.00;99.90;;;;;;5047194;28;20409;-67
2020/12/04 00:56:46;;;;;;;7.05;2.83;;;5.00;99.90;;;;;;5046602;28;20174;-67
2020/12/04 00:59:12;;;;;;;6.32;3.17;;;5.00;99.90;;;;;;5047143;28;20036;-67
2020/12/04 01:01:37;;;;;;;6.45;2.85;;;5.00;99.90;;;;;;5043512;28;20411;-67
2020/12/04 01:04:03;;;;;;;6.82;3.50;;;5.00;99.90;;;;;;5038863;28;20060;-67
2020/12/04 01:06:28;;;;;;;5.90;2.97;;;5.00;99.90;;;;;;5032565;28;20501;-67
2020/12/04 01:08:54;;;;;;;6.22;3.38;;;5.00;99.90;;;;;;5042570;28;20108;-67
2020/12/04 01:11:21;;;;;;;5.53;2.80;;;5.00;99.90;;;;;;5040978;28;20032;-66
2020/12/04 01:13:47;;;;;;;6.20;2.67;;;5.00;99.90;;;;;;5039411;28;20048;-66
2020/12/04 01:16:13;;;;;;;7.28;3.95;;;5.00;99.90;;;;;;5039190;28;20034;-66
2020/12/04 01:18:39;;;;;;;6.93;2.95;;;5.00;99.90;;;;;;5041584;28;20033;-66
2020/12/04 01:21:06;;;;;;;7.05;2.67;;;5.00;99.90;;;;;;5042112;28;20032;-67
2020/12/04 01:23:32;;;;;;;7.85;3.30;;;5.00;99.90;;;;;;5042911;28;20522;-67
2020/12/04 01:25:57;;;;;;;6.72;3.33;;;5.00;99.90;;;;;;5045422;28;20063;-67
2020/12/04 01:28:23;;;;;;;5.03;2.65;;;5.00;99.90;;;;;;5045069;28;20025;-67
2020/12/04 01:30:49;;;;;;;6.22;3.15;;;4.90;99.90;;;;;;5043232;28;20029;-67
2020/12/04 01:33:14;;;;;;;5.13;2.85;;;4.90;99.90;;;;;;5045262;28;20041;-67
2020/12/04 01:35:40;;;;;;;8.77;3.75;;;4.90;99.90;;;;;;5044017;28;20043;-68
2020/12/04 01:38:05;;;;;;;5.90;2.90;;;4.90;99.90;;;;;;5043941;28;20076;-67
2020/12/04 01:40:33;;;;;;;5.45;3.08;;;4.90;99.90;;;;;;5045265;28;20033;-67
2020/12/04 01:42:59;;;;;;;4.63;2.28;;;4.90;99.90;;;;;;5043873;28;20028;-67
2020/12/04 01:45:25;;;;;;;6.00;2.97;;;4.90;99.90;;;;;;5044818;28;20041;-66
2020/12/04 01:47:52;;;;;;;5.63;2.70;;;4.90;99.90;;;;;;5043855;28;20033;-68
2020/12/04 01:50:18;;;;;;;6.78;3.13;;;4.90;99.90;;;;;;5045360;28;20036;-67
2020/12/04 01:52:44;;;;;;;6.45;3.33;;;4.80;99.90;;;;;;5043076;28;20021;-68
2020/12/04 01:55:10;;;;;;;5.63;2.78;;;4.90;99.90;;;;;;5071425;28;20500;-68
2020/12/04 01:57:42;;;;;;;6.22;2.63;;;4.90;99.90;;;;;;5044753;28;20136;-67
2020/12/04 02:00:07;;;;;;;5.82;3.13;;;4.90;99.90;;;;;;5040692;28;20033;-67
2020/12/04 02:02:33;;;;;;;5.10;2.78;;;4.80;99.90;;;;;;5044371;28;20094;-66
2020/12/04 02:04:58;;;;;;;9.23;2.70;;;4.80;99.90;;;;;;5044881;28;20029;-67
2020/12/04 02:07:39;;;;;;;7.03;2.97;;;4.80;99.90;;;;;;5042585;28;20029;-68
2020/12/04 02:10:46;;;;;;;7.90;3.17;;;4.80;99.90;;;;;;5044092;28;20041;-68
2020/12/04 02:13:14;;;;;;;6.45;3.15;;;4.80;99.90;;;;;;5037429;28;20048;-68
2020/12/04 02:15:40;;;;;;;6.50;3.45;;;4.70;99.90;;;;;;5043076;28;20120;-68
2020/12/04 02:18:07;;;;;;;7.72;3.08;;;4.80;99.90;;;;;;5043975;28;20375;-68
2020/12/04 02:20:35;;;;;;;6.32;3.28;;;4.80;99.90;;;;;;5043970;28;20029;-68
2020/12/04 02:23:01;;;;;;;4.65;2.70;;;4.70;99.90;;;;;;5042672;28;20021;-67
2020/12/04 02:25:27;;;;;;;5.75;2.80;;;4.80;99.90;;;;;;5046240;28;20033;-67
2020/12/04 02:27:53;;;;;;;6.68;2.72;;;4.70;99.90;;;;;;5046773;28;20032;-67
2020/12/04 02:30:30;;;;;;;7.80;3.42;;;4.70;99.90;;;;;;5046415;28;20060;-67
2020/12/04 02:32:56;;;;;;;6.13;2.92;;;4.70;99.90;;;;;;5045412;28;20040;-69
2020/12/04 02:35:22;;;;;;;7.05;3.20;;;4.70;99.90;;;;;;5041531;28;20045;-67
2020/12/04 02:37:48;;;;;;;9.70;3.70;;;4.80;99.90;;;;;;5041560;28;20034;-67
2020/12/04 02:40:13;;;;;;;15.48;4.45;;;4.70;99.90;;;;;;5045723;28;20029;-68
2020/12/04 02:42:42;;;;;;;6.57;3.13;;;4.70;99.90;;;;;;5043689;28;20029;-68
2020/12/04 02:45:09;;;;;;;5.80;2.85;;;4.70;99.90;;;;;;5041116;28;20032;-67
2020/12/04 02:47:34;;;;;;;6.20;3.17;;;4.80;99.90;;;;;;5043889;28;20029;-66
2020/12/04 02:50:00;;;;;;;6.95;3.17;;;4.80;99.90;;;;;;5041028;28;20119;-70
2020/12/04 02:52:25;;;;;;;7.20;3.20;;;4.80;99.90;;;;;;5043630;28;20459;-67
2020/12/04 02:54:51;;;;;;;5.13;2.70;;;4.70;99.90;;;;;;5034938;28;20040;-68
2020/12/04 02:57:17;;;;;;;6.60;3.05;;;4.80;99.90;;;;;;5037265;28;20460;-67
2020/12/04 02:59:43;;;;;;;5.03;2.47;;;4.80;99.90;;;;;;5044963;28;20410;-67
2020/12/04 03:02:09;;;;;;;6.80;2.58;;;4.80;99.90;;;;;;5040356;28;20031;-68
2020/12/04 03:04:36;;;;;;;5.47;2.90;;;4.80;99.90;;;;;;5045010;28;20037;-67
2020/12/04 03:07:01;;;;;;;6.30;2.70;;;4.80;99.90;;;;;;5041095;28;20056;-67
2020/12/04 03:09:27;;;;;;;5.60;2.47;;;4.80;99.90;;;;;;5040115;28;20095;-68
2020/12/04 03:11:54;;;;;;;5.50;2.83;;;4.80;99.90;;;;;;5044689;28;20064;-67
2020/12/04 03:14:20;;;;;;;7.28;2.42;;;4.90;99.90;;;;;;5044493;28;20045;-68
2020/12/04 03:16:46;;;;;;;5.85;2.78;;;4.90;99.90;;;;;;5042852;28;20029;-68
2020/12/04 03:19:11;;;;;;;4.43;2.17;;;4.90;99.90;;;;;;5043068;28;20039;-68
2020/12/04 03:21:37;;;;;;;6.20;2.47;;;4.90;99.90;;;;;;5070724;28;20037;-68
2020/12/04 03:24:03;;;;;;;5.00;2.45;;;4.90;99.90;;;;;;5044885;28;20044;-67
2020/12/04 03:26:28;;;;;;;3.65;1.70;;;4.90;99.90;;;;;;5040945;28;20025;-67
2020/12/04 03:28:54;;;;;;;4.97;2.10;;;4.90;99.90;;;;;;5043097;28;20426;-68
2020/12/04 03:31:19;;;;;;;7.63;3.08;;;4.90;99.90;;;;;;5042203;28;20450;-68
2020/12/04 03:33:45;;;;;;;4.78;2.13;;;4.90;99.90;;;;;;5040827;28;20176;-67
2020/12/04 03:36:10;;;;;;;3.15;1.70;;;5.00;99.90;;;;;;5040586;28;20080;-68
2020/12/04 03:38:36;;;;;;;3.95;2.30;;;5.00;99.90;;;;;;5041704;28;20029;-68
2020/12/04 03:41:01;;;;;;;3.47;2.05;;;5.00;99.90;;;;;;5040347;28;20417;-67
2020/12/04 03:43:27;;;;;;;3.78;1.95;;;5.00;99.90;;;;;;5040734;28;20132;-68
2020/12/04 03:45:52;;;;;;;2.95;1.63;;;5.00;99.90;;;;;;5040403;28;20042;-67
2020/12/04 03:48:18;;;;;;;4.65;2.15;;;5.00;99.90;;;;;;5043110;28;20041;-68
2020/12/04 03:50:43;;;;;;;4.18;1.80;;;5.00;99.90;;;;;;5040744;28;20128;-68
2020/12/04 03:53:09;;;;;;;3.65;1.85;;;5.00;99.90;;;;;;5038800;28;20033;-68
2020/12/04 03:55:34;;;;;;;3.50;1.88;;;5.00;99.90;;;;;;5040888;28;20029;-68
2020/12/04 03:58:00;;;;;;;4.57;1.90;;;5.00;99.90;;;;;;5043128;28;20036;-69
2020/12/04 04:00:26;;;;;;;2.88;1.80;;;5.10;99.90;;;;;;5040259;28;20494;-67
2020/12/04 04:02:51;;;;;;;4.22;1.85;;;5.10;99.90;;;;;;5039828;28;20511;-68
2020/12/04 04:05:17;;;;;;;3.50;1.98;;;5.10;99.90;;;;;;5036251;28;20044;-68
2020/12/04 04:07:42;;;;;;;3.65;1.60;;;5.10;99.90;;;;;;5039643;28;20082;-67
2020/12/04 04:10:08;;;;;;;3.67;1.88;;;5.10;99.90;;;;;;5038039;28;20029;-66
2020/12/04 04:12:34;;;;;;;3.65;1.85;;;5.10;99.90;;;;;;5036588;28;20187;-68
2020/12/04 04:14:59;;;;;;;4.78;1.80;;;5.10;99.90;;;;;;5048626;28;20183;-67
2020/12/04 04:17:25;;;;;;;2.97;1.48;;;5.10;99.90;;;;;;5047678;28;20052;-68
2020/12/04 04:19:51;;;;;;;5.70;2.22;;;5.10;99.90;;;;;;5040031;28;20550;-68
2020/12/04 04:22:16;;;;;;;2.55;1.25;;;5.20;99.90;;;;;;5036322;28;20536;-70
2020/12/04 04:24:42;;;;;;;2.95;1.38;;;5.20;99.90;;;;;;5039936;28;20033;-68
2020/12/04 04:27:08;;;;;;;2.00;1.25;;;5.30;99.90;;;;;;5048786;28;20394;-68
2020/12/04 04:29:34;;;;;;;2.03;1.10;;;5.30;99.90;;;;;;5048001;28;20051;-67
2020/12/04 04:31:59;;;;;;;1.38;0.90;;;5.30;99.90;;;;;;5039612;28;20036;-67
2020/12/04 04:34:25;;;;;;;2.13;0.93;;;5.40;99.90;;;;;;5050003;23;20485;-62
2020/12/04 04:36:50;;;;;;;18.80;1.92;;;5.40;99.90;;;;;;5017652;28;20091;-60
2020/12/04 04:39:16;;;;;;;2.42;0.50;;;5.50;99.90;;;;;;5015239;28;20068;-61
2020/12/04 04:41:42;;;;;;;4.28;1.23;;;5.50;99.90;;;;;;5019228;28;20041;-62
2020/12/04 04:44:11;;;;;;;1.33;0.70;;;5.50;99.90;;;;;;5015690;28;20497;-61
2020/12/04 04:46:47;;;;;;;1.83;0.90;;;5.50;99.90;;;;;;5016847;28;20053;-60
2020/12/04 04:49:26;;;;;;;1.15;0.70;;;5.60;99.90;;;;;;5019583;28;20036;-62
2020/12/04 04:51:54;;;;;;;1.17;0.52;;;5.60;99.90;;;;;;5016352;28;20084;-63
2020/12/04 04:54:20;;;;;;;3.58;0.75;;;5.60;99.90;;;;;;5018593;28;20038;-61
2020/12/04 04:56:50;;;;;;;1.70;0.70;;;5.70;99.90;;;;;;5020951;28;20489;-60
2020/12/04 04:59:18;;;;;;;0.77;0.50;;;5.70;99.90;;;;;;5020334;28;20040;-62
2020/12/04 05:01:46;;;;;;;1.30;0.65;;;5.70;99.90;;;;;;5019712;28;20033;-63
2020/12/04 05:04:11;;;;;;;1.20;0.50;;;5.70;99.90;;;;;;5023509;28;20068;-61
2020/12/04 05:06:37;;;;;;;1.08;0.50;;;5.70;99.90;;;;;;5019067;28;20556;-60
2020/12/04 05:09:08;;;;;;;0.80;0.43;;;5.70;99.90;;;;;;5022038;28;20037;-63
2020/12/04 05:11:34;;;;;;;1.92;0.88;;;5.70;99.90;;;;;;5020707;28;20238;-61
2020/12/04 05:14:14;;;;;;;1.25;0.40;;;5.70;99.90;;;;;;5020079;28;20038;-61
2020/12/04 05:16:41;;;;;;;1.27;0.70;;;5.70;99.90;;;;;;5019768;28;20465;-63
2020/12/04 05:19:07;;;;;;;0.90;0.40;;;5.70;99.90;;;;;;5022731;28;20091;-61
2020/12/04 05:21:33;;;;;;;0.95;0.60;;;5.70;99.90;;;;;;5021000;28;20041;-62
2020/12/04 05:24:00;;;;;;;1.70;0.63;;;5.60;99.90;;;;;;5021385;28;20026;-62
2020/12/04 05:26:38;;;;;;;2.55;0.57;;;5.60;99.90;;;;;;5021765;28;20141;-61
2020/12/04 05:29:05;;;;;;;1.00;0.50;;;5.60;99.90;;;;;;5021717;28;20397;-61
2020/12/04 05:31:35;;;;;;;1.40;0.70;;;5.60;99.90;;;;;;5021012;28;20057;-63
2020/12/04 05:34:18;;;;;;;1.20;0.60;;;5.60;99.90;;;;;;5021615;28;20062;-61
2020/12/04 05:36:45;;;;;;;1.65;0.88;;;5.60;99.90;;;;;;5019337;28;20271;-61
2020/12/04 05:39:11;;;;;;;0.60;0.55;;;5.60;99.90;;;;;;5050779;28;20080;-61
2020/12/04 05:41:45;;;;;;;0.80;0.50;;;5.70;99.90;;;;;;5019808;28;20033;-62
2020/12/04 05:44:11;;;;;;;1.52;0.50;;;5.70;99.90;;;;;;5022465;28;20039;-62
2020/12/04 05:46:37;;;;;;;1.45;0.55;;;5.80;99.90;;;;;;5020125;28;20394;-62
2020/12/04 05:49:06;;;;;;;1.90;0.40;;;5.90;99.90;;;;;;5023003;28;20033;-62
2020/12/04 05:51:33;;;;;;;0.87;0.33;;;5.90;99.90;;;;;;5021730;28;20092;-61
2020/12/04 05:54:00;;;;;;;1.00;0.50;;;5.90;99.90;;;;;;5020206;28;20034;-62
2020/12/04 05:56:25;;;;;;;1.08;0.57;;;5.90;99.90;;;;;;5020534;28;20564;-60
2020/12/04 05:58:55;;;;;;;0.95;0.55;;;5.90;99.90;;;;;;5021173;28;20029;-62
2020/12/04 06:01:22;;;;;;;1.03;0.50;;;5.90;99.90;;;;;;5020018;28;20034;-62
2020/12/04 06:04:06;;;;;;;3.03;0.70;;;5.90;99.90;;;;;;5021778;28;20357;-61
2020/12/04 06:06:32;;;;;;;1.83;0.40;;;5.90;99.90;;;;;;5020981;28;20038;-59
2020/12/04 06:09:02;;;;;;;3.58;0.60;;;6.00;99.90;;;;;;5020260;28;20025;-60
2020/12/04 06:11:33;;;;;;;3.10;0.40;;;5.90;99.90;;;;;;5020467;28;20487;-60
2020/12/04 06:13:59;;;;;;;1.33;0.80;;;6.00;99.90;;;;;;5020498;28;20033;-62
2020/12/04 06:16:25;;;;;;;1.13;0.50;;;5.90;99.90;;;;;;5019860;28;20033;-61
2020/12/04 06:18:51;;;;;;;2.70;0.60;;;6.00;99.90;;;;;;5024839;28;20025;-62
2020/12/04 06:21:43;;;;;;;2.22;0.77;;;6.00;99.90;;;;;;5017160;28;20060;-62
2020/12/04 06:24:08;;;;;;;2.53;0.65;;;6.00;99.90;;;;;;5018746;28;20030;-61
2020/12/04 06:26:46;;;;;;;2.25;0.65;;;6.00;99.90;;;;;;5021103;28;20029;-60
2020/12/04 06:29:12;;;;;;;1.23;0.55;;;6.00;99.90;;;;;;5016983;28;20490;-63
2020/12/04 06:31:38;;;;;;;2.40;0.50;;;5.90;99.90;;;;;;5021935;28;20080;-61
2020/12/04 06:34:17;;;;;;;1.70;0.90;;;6.00;99.90;;;;;;5018008;28;20038;-60
2020/12/04 06:36:43;;;;;;;1.55;0.70;;;5.90;99.90;;;;;;5018887;28;20026;-61
2020/12/04 06:39:09;;;;;;;2.78;0.70;;;5.90;99.90;;;;;;5021975;28;20040;-62
2020/12/04 06:41:45;;;;;;;1.80;0.57;;;5.80;99.90;;;;;;5018325;28;20034;-63
2020/12/04 06:44:22;;;;;;;0.77;0.52;;;5.80;99.90;;;;;;5018495;28;20065;-61
2020/12/04 06:46:54;;;;;;;1.23;0.50;;;5.80;99.90;;;;;;5050665;28;20090;-61
2020/12/04 06:52:09;;;;;;;1.15;0.63;;;5.90;99.90;;;;;;5019226;28;20091;-62
2020/12/04 06:54:39;;;;;;;0.95;0.55;;;5.90;99.90;;;;;;5021510;28;20518;-68
2020/12/04 06:57:09;;;;;;;1.42;0.80;;;5.80;99.90;;;;;;5022081;28;20048;-62
2020/12/04 06:59:37;;;;;;;0.93;0.40;;;5.80;99.90;;;;;;5018785;28;20064;-59
2020/12/04 07:02:07;;;;;;;3.15;0.55;;;5.80;99.90;;;;;;5020977;28;20478;-60
2020/12/04 07:04:35;;;;;;;0.67;0.57;;;5.80;99.90;;;;;;5017904;28;20038;-63
2020/12/04 07:07:09;;;;;;;1.35;0.50;;;5.90;99.90;;;;;;5021130;28;20329;-64
2020/12/04 07:09:35;;;;;;;1.67;0.40;;;5.90;99.90;;;;;;5018949;28;20026;-62
2020/12/04 07:12:01;;;;;;;1.45;0.38;;;5.80;99.90;;;;;;5025409;28;20033;-61
2020/12/04 07:14:27;;;;;;;0.75;0.40;;;5.80;99.90;;;;;;5019616;28;20410;-61
2020/12/04 07:16:54;;;;;;;1.15;0.50;;;5.80;99.90;;;;;;5022681;28;20038;-61
2020/12/04 07:19:20;;;;;;;2.40;0.60;;;5.90;99.90;;;;;;5022301;28;20042;-62
2020/12/04 07:21:46;;;;;;;0.98;0.50;;;5.90;99.90;;;;;;5021984;28;20037;-62
2020/12/04 07:24:12;;;;;;;1.00;0.43;;;6.00;99.90;;;;;;5019954;28;20045;-60
2020/12/04 07:26:42;;;;;;;1.95;0.30;;;6.00;99.90;;;;;;5022688;28;20029;-61
2020/12/04 07:29:09;;;;;;;3.60;0.70;;;6.00;99.90;;;;;;5019726;28;20038;-60
2020/12/04 07:31:34;;;;;;;1.08;0.50;;;6.10;99.90;;;;;;5019364;28;20449;-61
2020/12/04 07:34:01;;;;;;;1.95;0.30;;;6.10;99.90;;;;;;5019469;28;20088;-60
2020/12/04 07:36:28;;;;;;;2.72;0.50;;;6.10;99.90;;;;;;5020543;28;20048;-60
2020/12/04 07:38:58;;;;;;;0.47;0.20;;;6.10;99.90;;;;;;5018474;28;20061;-62
2020/12/04 07:41:39;;;;;;;1.38;0.38;;;6.20;99.90;;;;;;5019953;28;20405;-63
2020/12/04 07:44:06;;;;;;;1.98;0.95;;;6.30;99.90;;;;;;5022932;28;20029;-61
2020/12/04 07:46:35;;;;;;;0.52;0.17;;;6.30;99.90;;;;;;5019147;28;20053;-62
2020/12/04 07:49:04;;;;;;;2.00;0.10;;;6.40;99.90;;;;;;5021561;28;20038;-61
2020/12/04 07:51:32;;;;;;;2.05;0.10;;;6.50;99.90;;;;;;5019831;28;20486;-62
2020/12/04 07:53:58;;;;;;;2.20;0.10;;;6.60;99.90;;;;;;5016931;28;20164;-61
2020/12/04 07:56:25;;;;;;;1.27;0.10;;;6.60;99.90;;;;;;5019667;28;20033;-62
2020/12/04 07:59:04;;;;;;;1.98;0.47;;;6.70;99.90;;;;;;5021769;28;20183;-62
2020/12/04 08:01:30;;;;;;;0.93;0.22;;;6.70;99.90;;;;;;5020366;28;20037;-61
2020/12/04 08:03:56;;;;;;;0.22;0.05;;;6.80;99.90;;;;;;5018014;28;20045;-61
2020/12/04 08:06:27;;;;;;;0.50;0.20;;;6.80;99.90;;;;;;5018864;28;20038;-62
2020/12/04 08:09:16;;;;;;;0.22;0.10;;;6.80;99.90;;;;;;5021216;28;20098;-62
2020/12/04 08:11:55;;;;;;;0.40;0.00;;;6.90;99.90;;;;;;5019855;28;20034;-61
2020/12/04 08:14:26;;;;;;;0.50;0.00;;;7.00;99.90;;;;;;5025721;28;20022;-61
2020/12/04 08:16:54;;;;;;;0.03;0.00;;;7.10;99.90;;;;;;5026007;28;20047;-60
2020/12/04 08:19:23;;;;;;;0.20;0.00;;;7.10;99.90;;;;;;5025256;28;20033;-62
2020/12/04 08:21:57;;;;;;;0.85;0.15;;;7.10;99.90;;;;;;5022536;28;20085;-62
2020/12/04 08:24:27;;;;;;;0.03;0.00;;;7.20;99.90;;;;;;5023012;28;20037;-63
2020/12/04 08:27:04;;;;;;;0.93;0.10;;;7.20;99.90;;;;;;5020444;28;20033;-61
2020/12/04 08:29:29;;;;;;;0.35;0.05;;;7.30;99.90;;;;;;5019849;28;20061;-61
2020/12/04 08:32:21;;;;;;;1.05;0.10;;;7.30;99.90;;;;;;5015546;28;20088;-60
2020/12/04 08:34:49;;;;;;;1.52;0.10;;;7.40;99.90;;;;;;5018715;28;20048;-61
2020/12/04 08:37:16;;;;;;;0.40;0.05;;;7.30;99.90;;;;;;5019208;28;20064;-61
2020/12/04 08:39:49;;;;;;;0.65;0.10;;;7.30;99.90;;;;;;5018980;28;20034;-62
2020/12/04 08:42:34;;;;;;;0.15;0.08;;;7.20;99.90;;;;;;5021337;28;20037;-63
2020/12/04 08:45:00;;;;;;;0.38;0.00;;;7.20;99.90;;;;;;5015354;28;20399;-62
2020/12/04 08:47:26;;;;;;;0.20;0.10;;;7.20;99.90;;;;;;5023830;28;20030;-61
2020/12/04 08:49:54;;;;;;;0.20;0.00;;;7.10;99.90;;;;;;5020917;28;20517;-60
2020/12/04 08:52:42;;;;;;;0.17;0.00;;;7.20;99.90;;;;;;5019710;28;20517;-61
2020/12/04 08:55:28;;;;;;;0.47;0.13;;;7.20;99.90;;;;;;5016069;28;20033;-61
2020/12/04 08:57:56;;;;;;;0.57;0.10;;;7.10;99.90;;;;;;5024216;28;20053;-64
2020/12/04 09:00:33;;;;;;;0.80;0.10;;;7.10;99.90;;;;;;5024239;28;20124;-63
2020/12/04 09:03:02;;;;;;;1.52;0.10;;;7.10;99.90;;;;;;5020320;28;20518;-61
2020/12/04 09:05:29;;;;;;;0.90;0.10;;;6.90;99.90;;;;;;5020005;28;20049;-63
2020/12/04 09:07:55;;;;;;;0.40;0.05;;;6.90;99.90;;;;;;5022332;28;20037;-62
2020/12/04 09:10:20;;;;;;;0.73;0.10;;;6.90;99.90;;;;;;5022125;28;20049;-63
2020/12/04 09:12:50;;;;;;;0.63;0.10;;;7.00;99.90;;;;;;5020853;28;20037;-63
2020/12/04 09:15:19;;;;;;;0.30;0.00;;;7.00;99.90;;;;;;5020187;28;20075;-61
2020/12/04 09:17:45;;;;;;;0.32;0.10;;;7.10;99.90;;;;;;5022724;28;20058;-61
2020/12/04 09:20:13;;;;;;;0.68;0.20;;;7.10;99.90;;;;;;5022729;28;20073;-61
2020/12/04 09:22:39;;;;;;;0.45;0.10;;;7.10;99.90;;;;;;5021521;28;20116;-62
2020/12/04 09:25:07;;;;;;;2.58;0.20;;;7.10;99.90;;;;;;5019755;28;20128;-61
2020/12/04 09:27:32;;;;;;;0.13;0.00;;;7.20;99.90;;;;;;5025823;28;20030;-61
2020/12/04 09:29:59;;;;;;;0.30;0.00;;;7.20;99.90;;;;;;5018748;28;20026;-61
2020/12/04 09:32:25;;;;;;;0.17;0.00;;;7.30;99.90;;;;;;5021444;28;20033;-62
2020/12/04 09:34:51;;;;;;;3.20;0.50;;;7.20;99.90;;;;;;5026383;28;20095;-64
2020/12/04 09:37:30;;;;;;;0.95;0.00;;;7.20;99.90;;;;;;5024083;28;20038;-61
2020/12/04 09:40:01;;;;;;;0.28;0.10;;;7.20;99.90;;;;;;5024177;28;20391;-62
2020/12/04 09:42:28;;;;;;;0.65;0.17;;;7.20;99.90;;;;;;5023752;28;20593;-63
2020/12/04 09:44:54;;;;;;;0.08;0.00;;;7.20;99.90;;;;;;5021156;28;20347;-62
2020/12/04 09:47:21;;;;;;;0.95;0.20;;;7.20;99.90;;;;;;5021746;28;20029;-63
2020/12/04 09:49:48;;;;;;;0.38;0.30;;;7.30;99.90;;;;;;5018597;28;20035;-62
2020/12/04 09:52:15;;;;;;;2.15;0.30;;;7.30;99.90;;;;;;5020624;28;20040;-62
2020/12/04 09:54:44;;;;;;;0.65;0.10;;;7.30;99.90;;;;;;5021164;28;20032;-62
2020/12/04 09:57:11;;;;;;;1.45;0.10;;;7.30;99.90;;;;;;5018690;28;20448;-61
2020/12/04 09:59:38;;;;;;;0.40;0.10;;;7.30;99.90;;;;;;5022180;28;20212;-61
2020/12/04 10:02:05;;;;;;;3.15;0.10;;;7.30;99.90;;;;;;5019338;28;20026;-62
2020/12/04 10:04:31;;;;;;;0.93;0.05;;;7.20;99.90;;;;;;5021004;28;20035;-62
2020/12/04 10:06:57;;;;;;;1.85;0.43;;;7.30;99.90;;;;;;5019035;28;20029;-62
2020/12/04 10:09:25;;;;;;;0.10;0.00;;;7.30;99.90;;;;;;5021613;28;20041;-62
2020/12/04 10:11:51;;;;;;;0.15;0.00;;;7.30;99.90;;;;;;5019915;28;20038;-61
2020/12/04 10:14:17;;;;;;;0.45;0.10;;;7.30;99.90;;;;;;5019207;28;20120;-60
2020/12/04 10:16:46;;;;;;;2.10;0.10;;;7.30;99.90;;;;;;5020675;28;20047;-61
2020/12/04 10:19:13;;;;;;;0.52;0.25;;;7.40;99.90;;;;;;5021022;28;20030;-61
2020/12/04 10:21:39;;;;;;;0.52;0.15;;;7.40;99.90;;;;;;5020632;28;20030;-62
2020/12/04 10:24:07;;;;;;;0.20;0.10;;;7.40;99.90;;;;;;5017602;28;20050;-60
2020/12/04 10:26:40;;;;;;;0.63;0.10;;;7.40;99.90;;;;;;5021658;28;20540;-62
2020/12/04 10:29:07;;;;;;;1.10;0.10;;;7.40;99.90;;;;;;5017966;28;20461;-61
2020/12/04 10:31:33;;;;;;;1.58;0.40;;;7.40;99.90;;;;;;5021458;28;20039;-61
2020/12/04 10:33:59;;;;;;;0.20;0.05;;;7.40;99.90;;;;;;5018411;28;20042;-62
2020/12/04 10:36:26;;;;;;;0.43;0.10;;;7.50;99.90;;;;;;5025992;23;20042;-69
2020/12/04 10:38:56;;;;;;;0.47;0.10;;;7.50;99.90;;;;;;5006754;28;20482;-68
2020/12/04 10:41:21;;;;;;;1.65;0.10;;;7.40;99.90;;;;;;5010378;28;20030;-69
2020/12/04 10:43:48;;;;;;;0.55;0.10;;;7.40;99.90;;;;;;5009587;28;20029;-69
2020/12/04 10:46:14;;;;;;;1.95;0.20;;;7.40;99.90;;;;;;5009215;28;20038;-69
2020/12/04 10:48:40;;;;;;;2.47;0.10;;;7.50;99.90;;;;;;5008399;28;20041;-68
2020/12/04 10:51:06;;;;;;;0.77;0.20;;;7.50;99.90;;;;;;5010182;28;20041;-68
2020/12/04 10:53:32;;;;;;;1.25;0.10;;;7.50;99.90;;;;;;5032249;28;20506;-71
2020/12/04 10:55:57;;;;;;;1.80;0.20;;;7.50;99.90;;;;;;5015215;28;20034;-68
2020/12/04 10:58:23;;;;;;;1.52;0.10;;;7.50;99.90;;;;;;5035610;28;20041;-68
2020/12/04 11:00:50;;;;;;;1.65;0.10;;;7.60;99.90;;;;;;5010188;28;20070;-70
2020/12/04 11:06:17;;;;;;;0.30;0.13;;;7.80;99.90;;;;;;4989219;28;20092;-69
2020/12/04 11:08:46;;;;;;;0.63;0.28;;;7.90;99.90;;;;;;5009991;28;20113;-68
2020/12/04 11:11:12;;;;;;;0.55;0.10;;;8.10;99.90;;;;;;5009774;28;20026;-68
2020/12/04 11:13:37;;;;;;;0.20;0.10;;;8.40;99.90;;;;;;5009840;28;20045;-66
2020/12/04 11:16:03;;;;;;;0.10;0.00;;;8.70;99.90;;;;;;5008701;28;20137;-68
2020/12/04 11:18:28;;;;;;;0.43;0.10;;;8.80;99.90;;;;;;5008928;28;20117;-68
2020/12/04 11:20:54;;;;;;;3.03;0.10;;;8.70;99.90;;;;;;5033373;28;20097;-67
2020/12/04 11:23:19;;;;;;;0.47;0.00;;;8.50;99.90;;;;;;5009628;28;20047;-67
2020/12/04 11:25:45;;;;;;;0.88;0.30;;;8.30;99.90;;;;;;5009784;28;20033;-68
2020/12/04 11:28:10;;;;;;;0.50;0.03;;;8.20;99.90;;;;;;5009965;28;20510;-67
2020/12/04 11:30:36;;;;;;;1.38;0.00;;;8.00;99.90;;;;;;5032832;28;20530;-68
2020/12/04 11:33:01;;;;;;;1.15;0.63;;;7.90;99.90;;;;;;5009751;28;20566;-67
2020/12/04 11:35:27;;;;;;;0.50;0.10;;;7.80;99.90;;;;;;5009110;28;20394;-67
2020/12/04 11:37:57;;;;;;;0.43;0.00;;;7.80;99.90;;;;;;5010044;28;20029;-67
2020/12/04 11:40:23;;;;;;;0.38;0.08;;;7.80;99.90;;;;;;5032403;28;20030;-68
2020/12/04 11:42:48;;;;;;;0.30;0.10;;;7.80;99.90;;;;;;5009653;28;20751;-70
2020/12/04 11:45:15;;;;;;;0.43;0.10;;;7.90;99.90;;;;;;5009490;28;20038;-68
2020/12/04 11:47:42;;;;;;;0.40;0.10;;;7.90;99.90;;;;;;5008602;28;20112;-69
2020/12/04 11:50:15;;;;;;;0.47;0.10;;;8.00;99.90;;;;;;5009249;28;20646;-67
2020/12/04 11:52:41;;;;;;;0.25;0.10;;;8.00;99.90;;;;;;5008893;28;20045;-69
2020/12/04 11:55:09;;;;;;;0.52;0.10;;;7.90;99.90;;;;;;5008000;28;20037;-67
2020/12/04 11:57:35;;;;;;;2.53;0.10;;;8.00;99.90;;;;;;5007192;28;20050;-67
2020/12/04 12:00:01;;;;;;;0.47;0.08;;;8.00;99.90;;;;;;5009154;28;20030;-67
2020/12/04 12:02:27;;;;;;;0.10;0.10;;;8.00;99.90;;;;;;5008288;28;20469;-68
2020/12/04 12:04:53;;;;;;;0.20;0.00;;;7.90;99.90;;;;;;5009011;28;20099;-67
2020/12/04 12:07:19;;;;;;;2.17;0.10;;;7.90;99.90;;;;;;5005018;28;20782;-68
2020/12/04 12:09:48;;;;;;;0.10;0.10;;;7.80;99.90;;;;;;5008820;28;20045;-68
2020/12/04 12:12:15;;;;;;;1.13;0.08;;;7.80;99.90;;;;;;5008923;28;20034;-67
2020/12/04 12:14:41;;;;;;;1.10;0.38;;;7.80;99.90;;;;;;5008847;28;20042;-67
2020/12/04 12:17:06;;;;;;;0.20;0.00;;;7.80;99.90;;;;;;5008374;28;20117;-67
2020/12/04 12:19:34;;;;;;;0.80;0.00;;;7.80;99.90;;;;;;5008645;28;20034;-68
2020/12/04 12:21:59;;;;;;;0.22;0.03;;;7.80;99.90;;;;;;5008989;28;20034;-67
2020/12/04 12:24:25;;;;;;;0.13;0.08;;;7.90;99.70;;;;;;5008966;28;20048;-66
2020/12/04 12:26:51;;;;;;;0.45;0.10;;;7.80;99.90;;;;;;5032238;28;20105;-67
2020/12/04 12:29:16;;;;;;;0.52;0.10;;;7.80;99.80;;;;;;5009511;28;20401;-67
2020/12/04 12:31:42;;;;;;;0.95;0.00;;;7.80;99.90;;;;;;5008857;28;20467;-67
2020/12/04 12:34:07;;;;;;;0.80;0.15;;;7.70;99.90;;;;;;5008879;28;20037;-68
2020/12/04 12:36:33;;;;;;;0.63;0.10;;;7.70;99.90;;;;;;5031286;28;20112;-67
2020/12/04 12:38:59;;;;;;;0.30;0.10;;;7.70;99.90;;;;;;5009360;28;20049;-67
2020/12/04 12:41:24;;;;;;;0.10;0.00;;;7.70;99.90;;;;;;5014207;28;20056;-68
2020/12/04 12:43:50;;;;;;;0.15;0.00;;;7.70;99.90;;;;;;5011443;28;20038;-67
2020/12/04 12:46:16;;;;;;;0.22;0.10;;;7.70;99.90;;;;;;5003933;28;20055;-70
2020/12/04 12:48:42;;;;;;;0.10;0.00;;;7.60;99.90;;;;;;5008032;28;20026;-67
2020/12/04 12:51:07;;;;;;;0.08;0.00;;;7.60;99.90;;;;;;5009076;28;20037;-67
2020/12/04 12:53:33;;;;;;;0.68;0.20;;;7.60;99.90;;;;;;5008437;28;20706;-68
2020/12/04 12:55:59;;;;;;;0.10;0.10;;;7.60;99.90;;;;;;5007595;28;20418;-68
2020/12/04 12:58:24;;;;;;;0.70;0.00;;;7.60;99.90;;;;;;5008451;28;20169;-67
2020/12/04 13:00:50;;;;;;;0.47;0.13;;;7.50;99.90;;;;;;5028032;28;20058;-69
2020/12/04 13:03:15;;;;;;;0.10;0.00;;;7.60;99.90;;;;;;5023747;28;20046;-68
2020/12/04 13:05:41;;;;;;;1.63;0.75;;;7.50;99.90;;;;;;5007959;28;20033;-67